»·PEaware :: N245LG KSMX-KBFL

N245LG :: KSMX-KBFL

FLIGHT INFORMATION

Flight Status: Arrived
Operator: Privately registered:
United States
More flights under this callsign
Pilot: Erik A. (17503)
Aircraft: CESSNA 172 SKYHAWK
(C172)
More flights by this aircraft type
Origin: KSMX Santa Maria Pub/Capt Hancock
United States
Destination: KBFL Meadows
United States
More flights between these airports :: More routes between these airports
Route: +
File this flight plan on PilotEdge
Remarks: CAT5
Altitude:
(Current/Filed)
0ft
Speed:
(Current/Filed)
0kts
Departed: 01-Jan-18 06:11 PM
Arrived: 01-Jan-18 06:59 PM
Distance/Time
Traveled:
76nm/0:48
Distance/Time
To Go:
Arrived

Flight Plot

Page will automatically refresh every two minutes.


Map Options




Map Legend


Flown Route
Filed Route
Departure Airport
Arrival Airport
Navaid (VOR, NDB)
Fix

Horizontal Profiles

Position Reports

Time Latitude Longitude Heading Altitude Ground
Speed
01-Jan-18 18:16 34.893201 -120.445256 223 264ft 6kts
01-Jan-18 18:17 34.900645 -120.454802 315 602ft 64kts
01-Jan-18 18:18 34.915186 -120.467860 319 1387ft 65kts
01-Jan-18 18:19 34.929901 -120.460742 70 2021ft 90kts
01-Jan-18 18:20 34.933734 -120.429968 85 2707ft 90kts
01-Jan-18 18:21 34.935404 -120.399332 86 3362ft 90kts
01-Jan-18 18:22 34.939153 -120.368718 79 3968ft 92kts
01-Jan-18 18:23 34.943790 -120.338268 69 4569ft 92kts
01-Jan-18 18:24 34.948798 -120.307431 87 5132ft 93kts
01-Jan-18 18:25 34.956021 -120.276759 68 5585ft 104kts
01-Jan-18 18:26 34.966725 -120.241056 71 5578ft 115kts
01-Jan-18 18:27 34.977792 -120.203883 68 5529ft 116kts
01-Jan-18 18:28 34.989007 -120.167380 73 5686ft 112kts
01-Jan-18 18:29 35.000301 -120.134881 55 6197ft 102kts
01-Jan-18 18:30 35.014970 -120.107297 59 6724ft 97kts
01-Jan-18 18:31 35.027752 -120.078659 62 7200ft 97kts
01-Jan-18 18:32 35.038411 -120.047430 67 7512ft 109kts
01-Jan-18 18:33 35.048637 -120.010335 74 7524ft 122kts
01-Jan-18 18:34 35.058047 -119.971529 56 7478ft 118kts
01-Jan-18 18:35 35.076832 -119.939271 49 7479ft 117kts
01-Jan-18 18:36 35.096976 -119.908304 47 7468ft 116kts
01-Jan-18 18:37 35.115451 -119.875619 61 7441ft 117kts
01-Jan-18 18:38 35.130897 -119.840919 59 7448ft 116kts
01-Jan-18 18:39 35.145317 -119.805731 62 7451ft 115kts
01-Jan-18 18:40 35.159328 -119.770543 63 7484ft 113kts
01-Jan-18 18:41 35.171379 -119.735254 65 7536ft 112kts
01-Jan-18 18:42 35.183218 -119.699916 68 7581ft 112kts
01-Jan-18 18:43 35.196287 -119.664520 57 7513ft 120kts
01-Jan-18 18:44 35.210827 -119.627531 66 7425ft 118kts
01-Jan-18 18:45 35.223388 -119.590140 57 7351ft 117kts
01-Jan-18 18:46 35.238142 -119.554716 65 7298ft 118kts
01-Jan-18 18:47 35.250576 -119.517781 67 7275ft 116kts
01-Jan-18 18:48 35.260464 -119.477291 66 6844ft 134kts
01-Jan-18 18:49 35.276973 -119.437384 57 6311ft 132kts
01-Jan-18 18:50 35.293797 -119.398154 65 5844ft 125kts
01-Jan-18 18:51 35.312956 -119.363022 51 5449ft 124kts
01-Jan-18 18:52 35.333096 -119.329127 55 5085ft 123kts
01-Jan-18 18:53 35.354273 -119.296072 50 4697ft 126kts
01-Jan-18 18:54 35.376835 -119.264182 48 4174ft 120kts
01-Jan-18 18:55 35.398224 -119.232216 54 3152ft 120kts
01-Jan-18 18:56 35.419363 -119.201557 45 2416ft 115kts
01-Jan-18 18:57 35.433194 -119.169758 91 1912ft 105kts
01-Jan-18 18:58 35.439924 -119.139861 51 2183ft 93kts
01-Jan-18 18:59 35.436537 -119.107999 119 2267ft 110kts
01-Jan-18 19:00 35.417710 -119.076191 130 2077ft 118kts
01-Jan-18 19:01 35.393751 -119.048827 132 1843ft 115kts
01-Jan-18 19:02 35.392387 -119.023986 36 1720ft 71kts
01-Jan-18 19:03 35.411093 -119.029373 324 1345ft 77kts
01-Jan-18 19:04 35.426081 -119.046813 314 710ft 73kts
01-Jan-18 19:05 35.436629 -119.059584 317 510ft 20kts
01-Jan-18 19:06 35.438256 -119.059765 74 510ft 0kts
01-Jan-18 19:07 35.438266 -119.059715 75 510ft 3kts
01-Jan-18 19:08 35.435396 -119.055823 135 510ft 19kts
01-Jan-18 19:09 35.432943 -119.052878 26 510ft 5kts
01-Jan-18 19:10 35.435442 -119.053347 47 510ft 12kts
01-Jan-18 19:11 35.435474 -119.050931 268 510ft 0kts

Navigation Log

Ident Type
1. KSMX Airport
2. KBFL Airport